Time;durP1;ratioP1;P1;durP2;ratioP2;P2;SDS_P1;SDS_P2;PMS_P1;PMS_P2;Temp;Humidity;BMP_temperature;BMP_pressure;BME280_temperature;BME280_humidity;BME280_pressure;Samples;Min_cycle;Max_cycle;Signal;HPM_P1;HPM_P2
2021/08/14 00:01:31;;;;;;;11.48;7.82;;;16.90;96.40;;;;;;5034605;28;20028;-82
2021/08/14 00:03:56;;;;;;;10.80;8.52;;;17.00;96.50;;;;;;5034331;28;20056;-81
2021/08/14 00:06:22;;;;;;;14.75;8.18;;;16.90;96.50;;;;;;5030233;28;20213;-82
2021/08/14 00:08:48;;;;;;;10.73;8.55;;;16.90;96.60;;;;;;5024060;28;20034;-83
2021/08/14 00:11:14;;;;;;;9.85;7.65;;;16.90;96.60;;;;;;5019371;28;20057;-82
2021/08/14 00:13:40;;;;;;;12.10;8.10;;;16.90;96.60;;;;;;5037814;28;20052;-81
2021/08/14 00:16:06;;;;;;;12.63;8.30;;;16.90;96.60;;;;;;5034610;28;20048;-82
2021/08/14 00:18:32;;;;;;;13.82;8.52;;;16.90;96.60;;;;;;5034036;28;20344;-82
2021/08/14 00:20:57;;;;;;;10.48;7.88;;;16.90;96.70;;;;;;5034207;28;20391;-81
2021/08/14 00:23:23;;;;;;;15.20;8.38;;;16.80;96.80;;;;;;5033907;28;20029;-82
2021/08/14 00:25:49;;;;;;;11.05;8.48;;;16.80;96.70;;;;;;5034175;28;20018;-81
2021/08/14 00:28:15;;;;;;;12.30;8.38;;;16.80;96.90;;;;;;5033809;28;20482;-82
2021/08/14 00:30:41;;;;;;;12.20;8.73;;;16.80;96.90;;;;;;5034059;28;20098;-84
2021/08/14 00:33:07;;;;;;;11.27;8.77;;;16.80;97.00;;;;;;5034160;28;20067;-83
2021/08/14 00:35:33;;;;;;;9.02;7.82;;;16.80;97.00;;;;;;5034437;28;20437;-84
2021/08/14 00:37:59;;;;;;;13.27;7.85;;;16.80;97.00;;;;;;5034366;28;20406;-83
2021/08/14 00:40:25;;;;;;;13.38;8.52;;;16.70;96.90;;;;;;5033910;28;20032;-82
2021/08/14 00:42:51;;;;;;;10.23;8.20;;;16.70;97.00;;;;;;5033778;28;20035;-84
2021/08/14 00:45:16;;;;;;;10.30;7.97;;;16.70;97.10;;;;;;5033347;28;20025;-81
2021/08/14 00:47:43;;;;;;;13.15;8.00;;;16.70;97.10;;;;;;5033455;28;20541;-82
2021/08/14 00:50:10;;;;;;;9.45;7.72;;;16.70;97.10;;;;;;5033650;28;20052;-83
2021/08/14 00:52:36;;;;;;;9.38;7.05;;;16.70;97.10;;;;;;5033937;28;20382;-82
2021/08/14 00:55:02;;;;;;;13.45;9.52;;;16.70;97.30;;;;;;5033447;28;20044;-83
2021/08/14 00:57:28;;;;;;;11.60;8.23;;;16.70;97.20;;;;;;5015721;28;20428;-81
2021/08/14 00:59:55;;;;;;;13.00;7.30;;;16.70;97.30;;;;;;5033536;28;20145;-82
2021/08/14 01:02:21;;;;;;;10.75;7.68;;;16.60;97.30;;;;;;5033212;28;20699;-83
2021/08/14 01:04:51;;;;;;;11.30;8.00;;;16.60;97.30;;;;;;5033385;28;20125;-83
2021/08/14 01:07:18;;;;;;;11.85;7.82;;;16.60;97.30;;;;;;5033619;28;20022;-82
2021/08/14 01:09:48;;;;;;;8.10;7.30;;;16.60;97.30;;;;;;5034818;28;20025;-83
2021/08/14 01:12:16;;;;;;;13.57;7.93;;;16.60;97.20;;;;;;5034355;28;20214;-82
2021/08/14 01:14:49;;;;;;;10.27;8.60;;;16.60;97.30;;;;;;5013262;28;20485;-83
2021/08/14 01:17:16;;;;;;;12.95;8.00;;;16.60;97.30;;;;;;5022687;28;20021;-83
2021/08/14 01:19:46;;;;;;;12.73;7.75;;;16.60;97.30;;;;;;5032478;28;20021;-83
2021/08/14 01:22:13;;;;;;;13.60;7.57;;;16.60;97.30;;;;;;5033333;28;20053;-83
2021/08/14 01:24:41;;;;;;;10.27;8.23;;;16.60;97.30;;;;;;5033789;28;20029;-83
2021/08/14 01:27:07;;;;;;;11.98;8.98;;;16.60;97.40;;;;;;5034531;28;20192;-83
2021/08/14 01:29:37;;;;;;;11.25;7.70;;;16.60;97.40;;;;;;5038670;28;20030;-81
2021/08/14 01:32:13;;;;;;;12.30;8.75;;;16.60;97.40;;;;;;5037616;28;20104;-82
2021/08/14 01:34:41;;;;;;;12.52;8.02;;;16.60;97.50;;;;;;5033675;28;20021;-83
2021/08/14 01:37:08;;;;;;;11.60;7.95;;;16.60;97.70;;;;;;5015139;28;20450;-82
2021/08/14 01:39:35;;;;;;;11.35;8.50;;;16.60;97.50;;;;;;5032978;28;20438;-83
2021/08/14 01:42:03;;;;;;;9.73;7.70;;;16.60;97.40;;;;;;5032629;28;20108;-83
2021/08/14 01:44:31;;;;;;;14.95;7.90;;;16.60;97.50;;;;;;5032955;28;20025;-82
2021/08/14 01:46:57;;;;;;;9.75;8.07;;;16.50;97.60;;;;;;5032946;28;20046;-82
2021/08/14 01:49:23;;;;;;;12.55;7.82;;;16.50;97.80;;;;;;5032774;28;20029;-82
2021/08/14 01:51:50;;;;;;;11.93;7.78;;;16.50;97.90;;;;;;5032814;28;20471;-83
2021/08/14 01:54:16;;;;;;;10.65;8.32;;;16.50;97.90;;;;;;5018925;28;20555;-83
2021/08/14 01:56:43;;;;;;;19.52;8.35;;;16.50;98.00;;;;;;5033583;28;20379;-83
2021/08/14 01:59:09;;;;;;;12.55;8.73;;;16.50;98.20;;;;;;5032393;28;20018;-83
2021/08/14 02:01:35;;;;;;;8.48;7.38;;;16.50;98.10;;;;;;5032557;28;20505;-83
2021/08/14 02:04:01;;;;;;;9.98;8.43;;;16.50;98.00;;;;;;5032622;28;20017;-83
2021/08/14 02:06:28;;;;;;;11.00;8.35;;;16.50;98.00;;;;;;4998650;28;20494;-84
2021/08/14 02:08:55;;;;;;;12.77;8.70;;;16.40;98.00;;;;;;5032491;28;20068;-84
2021/08/14 02:11:36;;;;;;;13.18;8.57;;;16.40;97.90;;;;;;5032462;28;20048;-85
2021/08/14 02:14:03;;;;;;;11.32;8.32;;;16.50;97.90;;;;;;5032501;28;20029;-83
2021/08/14 02:16:29;;;;;;;12.95;8.40;;;16.40;97.90;;;;;;5032754;28;20046;-83
2021/08/14 02:18:56;;;;;;;12.30;9.35;;;16.40;97.90;;;;;;5033981;28;20044;-83
2021/08/14 02:21:22;;;;;;;11.25;8.32;;;16.50;97.90;;;;;;5032812;28;20017;-83
2021/08/14 02:23:48;;;;;;;11.70;8.60;;;16.50;97.80;;;;;;5033146;28;20033;-84
2021/08/14 02:26:14;;;;;;;11.73;8.45;;;16.50;97.80;;;;;;5032513;28;20049;-82
2021/08/14 02:28:39;;;;;;;10.55;8.05;;;16.50;97.80;;;;;;5032452;28;20044;-84
2021/08/14 02:31:06;;;;;;;11.20;7.97;;;16.60;97.80;;;;;;5034399;28;20021;-84
2021/08/14 02:33:32;;;;;;;12.35;8.32;;;16.60;97.70;;;;;;5036772;28;20028;-85
2021/08/14 02:35:59;;;;;;;12.07;8.63;;;16.60;97.60;;;;;;5036611;28;20056;-85
2021/08/14 02:38:25;;;;;;;10.45;8.35;;;16.70;97.50;;;;;;5036538;28;20028;-84
2021/08/14 02:40:51;;;;;;;11.40;7.82;;;16.70;97.40;;;;;;5036537;28;20025;-84
2021/08/14 02:43:17;;;;;;;11.52;8.02;;;16.70;97.30;;;;;;5036197;28;20021;-83
2021/08/14 02:45:44;;;;;;;11.80;8.27;;;16.70;97.20;;;;;;5035996;28;20091;-82
2021/08/14 02:48:11;;;;;;;9.63;8.03;;;16.80;97.00;;;;;;5036202;28;20076;-84
2021/08/14 02:50:38;;;;;;;9.40;7.70;;;16.90;96.90;;;;;;5035854;28;20274;-84
2021/08/14 02:53:04;;;;;;;13.63;8.32;;;16.90;96.60;;;;;;5026118;28;20477;-82
2021/08/14 02:55:30;;;;;;;11.68;8.05;;;17.00;96.50;;;;;;5032711;28;20056;-83
2021/08/14 02:57:56;;;;;;;11.82;9.05;;;16.90;96.40;;;;;;5036077;28;20390;-82
2021/08/14 03:00:22;;;;;;;10.68;8.90;;;17.00;96.30;;;;;;5035629;28;20095;-82
2021/08/14 03:02:47;;;;;;;11.27;9.15;;;17.00;96.10;;;;;;5037119;28;20173;-84
2021/08/14 03:05:13;;;;;;;13.75;8.77;;;17.10;96.00;;;;;;5036936;28;20045;-83
2021/08/14 03:07:39;;;;;;;13.00;7.75;;;17.10;95.90;;;;;;5035693;28;20021;-82
2021/08/14 03:10:05;;;;;;;12.02;8.65;;;17.20;95.80;;;;;;5035887;28;20534;-83
2021/08/14 03:12:31;;;;;;;11.55;8.50;;;17.20;95.70;;;;;;5036475;28;20025;-84
2021/08/14 03:14:57;;;;;;;11.02;7.75;;;17.30;95.60;;;;;;5036346;28;20046;-82
2021/08/14 03:17:23;;;;;;;13.77;7.95;;;17.30;95.20;;;;;;5036350;28;20082;-83
2021/08/14 03:19:49;;;;;;;10.93;7.68;;;17.40;95.00;;;;;;5037353;28;20017;-81
2021/08/14 03:22:15;;;;;;;11.20;7.97;;;17.40;95.00;;;;;;5039340;28;20026;-82
2021/08/14 03:24:41;;;;;;;9.40;8.02;;;17.40;94.90;;;;;;5037340;28;20013;-82
2021/08/14 03:27:07;;;;;;;14.00;8.45;;;17.50;94.70;;;;;;5035458;28;20021;-83
2021/08/14 03:29:33;;;;;;;11.90;8.25;;;17.60;94.70;;;;;;5035190;28;20447;-83
2021/08/14 03:32:00;;;;;;;11.45;7.72;;;17.60;94.50;;;;;;5035402;28;20025;-83
2021/08/14 03:34:26;;;;;;;11.63;8.60;;;17.70;94.40;;;;;;5035152;28;20033;-81
2021/08/14 03:36:52;;;;;;;10.57;8.35;;;17.70;94.20;;;;;;5035085;28;20121;-83
2021/08/14 03:39:18;;;;;;;8.88;7.72;;;17.80;94.10;;;;;;5036084;28;20053;-83
2021/08/14 03:41:44;;;;;;;9.70;8.02;;;17.90;94.00;;;;;;5035620;28;20025;-84
2021/08/14 03:44:10;;;;;;;10.98;8.10;;;17.90;93.70;;;;;;5036075;28;20079;-83
2021/08/14 03:46:36;;;;;;;12.10;8.43;;;18.00;93.50;;;;;;5037018;28;20057;-83
2021/08/14 03:49:02;;;;;;;11.07;7.40;;;18.00;93.40;;;;;;5036243;28;20036;-84
2021/08/14 03:51:28;;;;;;;10.52;7.78;;;18.10;93.20;;;;;;5035520;28;20022;-85
2021/08/14 03:53:54;;;;;;;12.57;7.38;;;18.10;93.00;;;;;;5035591;28;20433;-84
2021/08/14 03:56:19;;;;;;;13.43;8.20;;;18.20;92.80;;;;;;5036630;28;20117;-85
2021/08/14 03:58:45;;;;;;;11.63;8.20;;;18.30;92.90;;;;;;5035984;28;20112;-84
2021/08/14 04:01:11;;;;;;;10.18;7.88;;;18.30;92.60;;;;;;5036925;28;20026;-84
2021/08/14 04:03:37;;;;;;;9.27;7.07;;;18.40;92.50;;;;;;5006223;28;20172;-83
2021/08/14 04:06:03;;;;;;;11.20;7.57;;;18.50;92.30;;;;;;5035765;28;20032;-85
2021/08/14 04:08:29;;;;;;;15.55;7.20;;;18.50;92.10;;;;;;5028155;28;20491;-84
2021/08/14 04:10:55;;;;;;;10.93;7.57;;;18.60;92.10;;;;;;5036044;28;20021;-83
2021/08/14 04:13:21;;;;;;;8.60;7.38;;;18.70;92.00;;;;;;5036243;28;20025;-84
2021/08/14 04:15:47;;;;;;;13.45;10.23;;;18.70;91.80;;;;;;5036153;28;20513;-85
2021/08/14 04:18:13;;;;;;;11.02;8.00;;;18.70;91.70;;;;;;5035370;28;20033;-83
2021/08/14 04:20:39;;;;;;;13.73;8.38;;;18.80;91.60;;;;;;5035580;28;20027;-84
2021/08/14 04:23:05;;;;;;;10.55;7.18;;;18.80;91.40;;;;;;5035807;28;20105;-85
2021/08/14 04:25:31;;;;;;;10.65;7.45;;;18.90;91.30;;;;;;5037152;28;20096;-86
2021/08/14 04:27:56;;;;;;;11.15;7.03;;;18.90;91.00;;;;;;5017517;28;20112;-86
2021/08/14 04:30:23;;;;;;;9.38;7.80;;;19.00;90.90;;;;;;5034751;28;20061;-82
2021/08/14 04:32:51;;;;;;;10.30;7.97;;;19.10;90.80;;;;;;5034504;28;20036;-82
2021/08/14 04:35:17;;;;;;;11.80;7.20;;;19.10;90.60;;;;;;5040754;28;20029;-84
2021/08/14 04:37:43;;;;;;;11.73;7.15;;;19.10;90.70;;;;;;5037375;28;20033;-84
2021/08/14 04:40:14;;;;;;;14.10;7.00;;;19.10;90.50;;;;;;5038320;28;20179;-83
2021/08/14 04:42:40;;;;;;;13.25;6.90;;;19.20;90.50;;;;;;5039864;28;20026;-83
2021/08/14 04:45:07;;;;;;;11.85;8.10;;;19.30;90.50;;;;;;5037261;28;20013;-85
2021/08/14 04:47:32;;;;;;;14.00;7.35;;;19.50;90.40;;;;;;5036093;28;20035;-85
2021/08/14 04:49:59;;;;;;;8.38;6.70;;;19.80;90.10;;;;;;5037484;28;20037;-84
2021/08/14 04:52:24;;;;;;;12.68;7.45;;;20.40;88.30;;;;;;5035750;28;20057;-84
2021/08/14 04:54:50;;;;;;;11.80;7.10;;;21.10;85.20;;;;;;5036738;28;20028;-84
2021/08/14 04:57:17;;;;;;;7.78;6.47;;;21.90;81.70;;;;;;5035971;28;20029;-84
2021/08/14 04:59:43;;;;;;;10.20;6.57;;;22.70;78.30;;;;;;5035241;28;20021;-85
2021/08/14 05:02:09;;;;;;;8.90;6.90;;;23.40;75.20;;;;;;5033980;28;20494;-84
2021/08/14 05:04:34;;;;;;;12.23;7.45;;;24.00;72.50;;;;;;5033744;28;20029;-84
2021/08/14 05:07:00;;;;;;;10.23;8.15;;;24.70;70.00;;;;;;5034156;28;20021;-86
2021/08/14 05:09:27;;;;;;;10.38;6.95;;;25.10;67.60;;;;;;5033870;28;20030;-83
2021/08/14 05:11:53;;;;;;;12.80;7.18;;;25.50;66.20;;;;;;5034950;28;20021;-83
2021/08/14 05:14:19;;;;;;;11.93;6.43;;;26.00;64.70;;;;;;5036120;28;20029;-85
2021/08/14 05:16:45;;;;;;;7.70;6.57;;;26.30;63.10;;;;;;5041452;28;20024;-86
2021/08/14 05:19:11;;;;;;;9.13;7.03;;;26.80;61.30;;;;;;5039312;28;20025;-86
2021/08/14 05:21:37;;;;;;;10.10;6.50;;;27.00;59.40;;;;;;5034783;28;20101;-85
2021/08/14 05:24:04;;;;;;;9.75;5.85;;;27.10;58.90;;;;;;5018668;28;20068;-85
2021/08/14 05:26:31;;;;;;;10.30;5.80;;;27.30;59.00;;;;;;5021662;28;20104;-86
2021/08/14 05:28:57;;;;;;;10.07;6.20;;;27.80;57.70;;;;;;5034186;28;20048;-85
2021/08/14 05:31:23;;;;;;;8.32;5.68;;;28.00;56.40;;;;;;5034428;28;20029;-87
2021/08/14 05:33:49;;;;;;;7.47;5.95;;;28.20;55.40;;;;;;5034596;28;20035;-86
2021/08/14 05:36:15;;;;;;;9.25;5.78;;;28.50;55.10;;;;;;5016408;28;20025;-86
2021/08/14 05:38:41;;;;;;;8.30;5.78;;;28.70;53.80;;;;;;5030121;28;20026;-84
2021/08/14 05:41:06;;;;;;;7.65;5.40;;;28.90;53.40;;;;;;5024086;28;20382;-84
2021/08/14 05:43:33;;;;;;;8.13;5.85;;;29.30;53.70;;;;;;5033469;28;20029;-85
2021/08/14 05:45:59;;;;;;;11.10;5.78;;;29.80;52.10;;;;;;5033755;28;20025;-85
2021/08/14 05:48:25;;;;;;;5.82;4.80;;;30.40;51.10;;;;;;5033802;28;20045;-86
2021/08/14 05:50:51;;;;;;;8.38;5.18;;;30.70;49.60;;;;;;5031608;28;20497;-85
2021/08/14 05:53:20;;;;;;;8.10;4.72;;;31.10;49.60;;;;;;5034201;28;20387;-85
2021/08/14 05:55:46;;;;;;;7.55;5.13;;;31.70;49.00;;;;;;5031965;28;20109;-84
2021/08/14 05:58:12;;;;;;;6.27;5.47;;;32.50;47.30;;;;;;5033413;28;20018;-86
2021/08/14 06:00:38;;;;;;;8.30;4.65;;;32.90;46.60;;;;;;5033814;28;20319;-86
2021/08/14 06:03:04;;;;;;;11.13;5.13;;;33.30;45.80;;;;;;5034030;28;20097;-85
2021/08/14 06:05:30;;;;;;;7.75;5.20;;;34.00;44.60;;;;;;5032922;28;20022;-85
2021/08/14 06:07:56;;;;;;;6.83;5.77;;;34.80;43.20;;;;;;5039088;28;20036;-85
2021/08/14 06:10:22;;;;;;;6.57;4.90;;;;;;;;;;5042727;28;20017;-88
2021/08/14 06:12:48;;;;;;;8.95;5.55;;;35.60;44.00;;;;;;5039435;28;20049;-90
2021/08/14 06:15:14;;;;;;;7.10;4.47;;;;;;;;;;5037545;28;20426;-88
2021/08/14 06:17:41;;;;;;;10.90;5.00;;;;;;;;;;5037196;28;20057;-90
2021/08/14 06:20:11;;;;;;;6.95;4.00;;;;;;;;;;5023906;28;20029;-88
2021/08/14 06:22:38;;;;;;;7.03;4.00;;;;;;;;;;5032274;28;20029;-89
2021/08/14 06:25:04;;;;;;;;;;;36.10;40.50;;;;;;5023409;28;20032;-89
2021/08/14 06:27:30;;;;;;;6.18;4.10;;;37.60;41.50;;;;;;5032752;28;19905;-87
2021/08/14 06:29:56;;;;;;;6.13;3.95;;;37.40;37.50;;;;;;5037610;28;20038;-88
2021/08/14 06:32:22;;;;;;;4.83;3.63;;;;;;;;;;5045852;28;20021;-88
2021/08/14 06:34:48;;;;;;;5.45;3.78;;;;;;;;;;5048754;28;20256;-87
2021/08/14 06:37:14;;;;;;;7.40;4.57;;;;;;;;;;5015635;28;20026;-88
2021/08/14 06:39:41;;;;;;;6.47;4.15;;;;;;;;;;5026551;28;20025;-87
2021/08/14 06:42:08;;;;;;;7.68;4.43;;;;;;;;;;5037591;28;20114;-86
2021/08/14 06:44:34;;;;;;;;;;;;;;;;;;5042697;28;20026;-88
2021/08/14 06:47:01;;;;;;;7.00;4.45;;;37.30;37.40;;;;;;5038326;28;19905;-87
2021/08/14 06:49:29;;;;;;;7.85;3.90;;;;;;;;;;5037283;28;20093;-89
2021/08/14 06:51:55;;;;;;;6.38;4.10;;;38.50;36.00;;;;;;5034748;28;20540;-88
2021/08/14 06:54:20;;;;;;;12.32;4.18;;;39.30;35.00;;;;;;5021472;28;20030;-88
2021/08/14 06:56:46;;;;;;;4.03;3.42;;;39.80;34.90;;;;;;5033835;28;20513;-88
2021/08/14 06:59:12;;;;;;;6.18;3.17;;;40.10;33.60;;;;;;5034802;28;20025;-88
2021/08/14 07:01:38;;;;;;;12.27;4.22;;;39.50;33.80;;;;;;5035655;28;20034;-88
2021/08/14 07:04:04;;;;;;;6.78;3.60;;;39.80;34.00;;;;;;5014612;28;20030;-85
2021/08/14 07:06:30;;;;;;;9.77;4.03;;;40.60;32.80;;;;;;5025325;28;20108;-86
2021/08/14 07:08:56;;;;;;;7.18;4.03;;;40.20;32.40;;;;;;5032010;28;20068;-85
2021/08/14 07:11:22;;;;;;;6.80;3.20;;;39.50;32.60;;;;;;5023543;28;20028;-85
2021/08/14 07:13:49;;;;;;;6.20;3.42;;;39.80;33.10;;;;;;5022387;28;20068;-86
2021/08/14 07:16:15;;;;;;;5.97;3.58;;;;;;;;;;5028317;28;20045;-87
2021/08/14 07:18:42;;;;;;;;;;;;;;;;;;5032098;28;20025;-87
2021/08/14 07:21:08;;;;;;;7.20;4.07;;;40.40;32.60;;;;;;5037709;28;20285;-86
2021/08/14 07:23:34;;;;;;;8.55;3.95;;;41.40;31.30;;;;;;5019176;28;20036;-86
2021/08/14 07:26:00;;;;;;;10.88;4.07;;;41.20;30.70;;;;;;5036264;28;20100;-86
2021/08/14 07:28:27;;;;;;;12.55;4.47;;;41.20;31.20;;;;;;5036643;28;20041;-86
2021/08/14 07:30:53;;;;;;;5.90;3.15;;;41.90;31.40;;;;;;5018403;28;20025;-86
2021/08/14 07:33:19;;;;;;;6.35;3.25;;;41.80;30.00;;;;;;5036700;28;20021;-87
2021/08/14 07:35:45;;;;;;;;;;;42.20;30.00;;;;;;5032851;28;20395;-86
2021/08/14 07:38:11;;;;;;;15.98;6.43;;;40.50;31.20;;;;;;5036478;28;19912;-85
2021/08/14 07:40:37;;;;;;;9.93;5.03;;;39.80;31.90;;;;;;5024325;28;20018;-84
2021/08/14 07:43:03;;;;;;;7.80;4.45;;;38.70;31.70;;;;;;5038863;28;20387;-84
2021/08/14 07:45:29;;;;;;;8.75;4.20;;;37.80;33.20;;;;;;5030381;28;20025;-84
2021/08/14 07:47:55;;;;;;;;;;;37.90;33.60;;;;;;5010510;28;20041;-84
2021/08/14 07:50:27;;;;;;;6.88;3.90;;;38.70;34.50;;;;;;5034196;28;20011;-85
2021/08/14 07:52:54;;;;;;;7.28;3.90;;;38.70;32.10;;;;;;5030169;28;20029;-86
2021/08/14 07:55:21;;;;;;;7.18;3.78;;;38.50;32.60;;;;;;5040135;28;20036;-84
2021/08/14 07:57:47;;;;;;;5.38;3.60;;;38.60;32.60;;;;;;5016743;28;20022;-89
2021/08/14 08:00:16;;;;;;;7.72;3.88;;;39.30;32.10;;;;;;5032930;28;20044;-88
2021/08/14 08:02:43;;;;;;;7.05;3.65;;;39.90;30.90;;;;;;5035165;28;20512;-86
2021/08/14 08:05:12;;;;;;;6.53;3.88;;;40.10;31.90;;;;;;5034853;28;20033;-86
2021/08/14 08:07:40;;;;;;;5.45;3.65;;;40.30;31.10;;;;;;5021511;28;20356;-87
2021/08/14 08:10:09;;;;;;;9.77;4.55;;;;;;;;;;5034975;28;20040;-87
2021/08/14 08:12:36;;;;;;;7.55;3.85;;;40.70;30.60;;;;;;5016655;28;20077;-86
2021/08/14 08:15:03;;;;;;;9.93;4.50;;;40.90;30.20;;;;;;5016634;28;20486;-87
2021/08/14 08:17:29;;;;;;;6.10;3.78;;;40.70;30.50;;;;;;5025686;28;20498;-85
2021/08/14 08:19:55;;;;;;;;;;;40.30;30.70;;;;;;5010232;28;20021;-87
2021/08/14 08:22:21;;;;;;;4.65;3.17;;;40.80;32.30;;;;;;5034784;28;19905;-85
2021/08/14 08:24:47;;;;;;;8.40;3.63;;;41.10;29.50;;;;;;5034548;28;20014;-84
2021/08/14 08:27:13;;;;;;;5.63;3.35;;;40.10;30.40;;;;;;5026245;28;20502;-86
2021/08/14 08:29:39;;;;;;;3.50;3.10;;;39.70;30.20;;;;;;5033929;28;20186;-84
2021/08/14 08:32:09;;;;;;;6.00;3.55;;;40.00;30.50;;;;;;5034947;28;20052;-87
2021/08/14 08:34:35;;;;;;;6.00;3.33;;;40.30;30.10;;;;;;5034582;28;20131;-86
2021/08/14 08:37:02;;;;;;;7.00;3.25;;;40.70;30.00;;;;;;5034849;28;20538;-86
2021/08/14 08:39:28;;;;;;;5.88;3.67;;;41.30;29.80;;;;;;5015248;28;20430;-87
2021/08/14 08:41:56;;;;;;;6.88;4.03;;;42.20;29.50;;;;;;5016692;28;20394;-83
2021/08/14 08:44:22;;;;;;;8.00;3.45;;;42.70;29.60;;;;;;5033308;28;20018;-85
2021/08/14 08:46:49;;;;;;;6.28;3.80;;;41.60;29.30;;;;;;5031373;28;20071;-85
2021/08/14 08:49:19;;;;;;;7.57;4.05;;;40.80;29.40;;;;;;5023686;28;20045;-88
2021/08/14 08:51:45;;;;;;;7.10;3.30;;;40.70;29.80;;;;;;5036249;28;20092;-81
2021/08/14 08:54:12;;;;;;;6.13;3.80;;;41.20;29.80;;;;;;5034383;28;20505;-83
2021/08/14 08:56:38;;;;;;;4.68;3.55;;;42.10;29.20;;;;;;5021744;28;20108;-84
2021/08/14 08:59:05;;;;;;;5.80;3.20;;;43.30;28.40;;;;;;5032105;28;20013;-83
2021/08/14 09:01:31;;;;;;;4.65;3.38;;;43.00;28.00;;;;;;5033311;28;20025;-82
2021/08/14 09:04:16;;;;;;;;;;;42.00;28.30;;;;;;5034662;28;20492;-85
2021/08/14 09:06:42;;;;;;;5.03;3.20;;;41.40;29.10;;;;;;5036632;28;19905;-90
2021/08/14 09:09:08;;;;;;;;;;;40.80;29.10;;;;;;5035463;28;20056;-86
2021/08/14 09:11:34;;;;;;;6.43;3.72;;;41.10;30.00;;;;;;5025749;28;19948;-87
2021/08/14 09:14:07;;;;;;;;;;;41.80;29.10;;;;;;5022962;28;20052;-85
2021/08/14 09:16:33;;;;;;;6.57;4.07;;;41.60;30.30;;;;;;5043191;28;19924;-85
2021/08/14 09:19:01;;;;;;;7.43;3.60;;;41.00;29.30;;;;;;5010629;28;20022;-86
2021/08/14 09:21:35;;;;;;;5.38;3.67;;;40.60;29.00;;;;;;5024876;28;20099;-85
2021/08/14 09:24:06;;;;;;;6.28;3.92;;;40.00;29.50;;;;;;5035335;28;20068;-86
2021/08/14 09:26:52;;;;;;;4.10;3.40;;;40.70;29.50;;;;;;5019765;28;20491;-86
2021/08/14 09:29:28;;;;;;;5.88;3.90;;;41.80;29.00;;;;;;5015482;28;20124;-87
2021/08/14 09:31:55;;;;;;;6.57;4.10;;;41.40;28.90;;;;;;5034546;28;20071;-87
2021/08/14 09:34:23;;;;;;;6.82;3.40;;;41.10;28.80;;;;;;5035404;28;20087;-87
2021/08/14 09:37:00;;;;;;;4.65;2.75;;;41.70;28.40;;;;;;5031594;28;20021;-88
2021/08/14 09:39:27;;;;;;;4.90;3.47;;;39.80;28.40;;;;;;5019560;28;20021;-89
2021/08/14 09:42:02;;;;;;;5.70;3.50;;;37.10;28.50;;;;;;5024763;28;20044;-89
2021/08/14 09:44:28;;;;;;;7.07;4.78;;;35.00;31.30;;;;;;5039408;28;20021;-90
2021/08/14 09:46:54;;;;;;;5.53;3.87;;;32.40;33.80;;;;;;5039864;28;20022;-88
2021/08/14 09:49:20;;;;;;;5.45;4.07;;;32.20;35.80;;;;;;5049441;28;20041;-86
2021/08/14 09:51:45;;;;;;;5.70;4.30;;;31.50;37.10;;;;;;5046095;28;20025;-85
2021/08/14 09:54:12;;;;;;;7.80;4.07;;;30.90;37.80;;;;;;5035720;28;20091;-88
2021/08/14 09:56:37;;;;;;;5.70;4.40;;;30.30;37.70;;;;;;5040754;28;20021;-86
2021/08/14 09:59:05;;;;;;;9.27;4.25;;;29.80;38.20;;;;;;5031272;28;20025;-81
2021/08/14 10:01:32;;;;;;;7.45;5.13;;;29.40;38.40;;;;;;5019682;28;20060;-85
2021/08/14 10:03:59;;;;;;;6.78;4.25;;;30.30;38.80;;;;;;5031550;28;20379;-86
2021/08/14 10:06:26;;;;;;;5.47;3.60;;;32.50;36.80;;;;;;5014122;28;20093;-84
2021/08/14 10:08:52;;;;;;;4.50;3.50;;;34.30;34.30;;;;;;5025540;28;20057;-84
2021/08/14 10:11:18;;;;;;;6.75;4.03;;;36.00;33.20;;;;;;5032771;28;20034;-87
2021/08/14 10:13:45;;;;;;;7.65;4.25;;;37.20;31.80;;;;;;5033127;28;20037;-87
2021/08/14 10:16:11;;;;;;;;;;;37.80;31.30;;;;;;5030636;28;20048;-86
2021/08/14 10:18:39;;;;;;;5.93;3.15;;;37.00;31.70;;;;;;5010413;28;19916;-87
2021/08/14 10:21:05;;;;;;;5.80;4.28;;;35.30;31.70;;;;;;5033543;28;20398;-88
2021/08/14 10:23:31;;;;;;;7.40;4.17;;;33.80;33.80;;;;;;5024893;28;20113;-86
2021/08/14 10:26:18;;;;;;;8.57;4.57;;;32.70;35.80;;;;;;5026425;28;20048;-85
2021/08/14 10:28:46;;;;;;;8.60;4.05;;;32.20;37.20;;;;;;5031206;28;20030;-88
2021/08/14 10:31:30;;;;;;;7.70;3.95;;;32.20;37.00;;;;;;5033239;28;20378;-84
2021/08/14 10:34:11;;;;;;;5.70;3.78;;;31.90;36.90;;;;;;5032274;28;20025;-83
2021/08/14 10:36:39;;;;;;;6.07;4.22;;;31.30;37.80;;;;;;5013164;28;20033;-81
2021/08/14 10:39:20;;;;;;;5.45;3.55;;;30.90;38.40;;;;;;5033571;28;20023;-84
2021/08/14 10:41:50;;;;;;;7.10;5.13;;;30.50;38.50;;;;;;5032780;28;20030;-84
2021/08/14 10:44:47;;;;;;;8.57;4.72;;;29.90;39.40;;;;;;5026831;28;20017;-83
2021/08/14 10:47:50;;;;;;;8.35;4.00;;;29.30;39.10;;;;;;5037738;28;20029;-81
2021/08/14 10:50:31;;;;;;;9.90;4.50;;;28.60;40.60;;;;;;4931930;29;20080;-84
2021/08/14 10:53:17;;;;;;;8.15;4.65;;;28.10;42.00;;;;;;4936762;29;20039;-85
2021/08/14 10:55:51;;;;;;;8.38;4.65;;;27.70;42.70;;;;;;4933201;29;20024;-84
2021/08/14 10:58:23;;;;;;;10.48;5.20;;;27.40;44.50;;;;;;4928831;29;20036;-83
2021/08/14 11:01:04;;;;;;;6.25;5.20;;;27.30;45.50;;;;;;4937569;29;20039;-82
2021/08/14 11:03:35;;;;;;;10.65;4.88;;;27.20;45.20;;;;;;4943425;29;20035;-86
2021/08/14 11:06:27;;;;;;;13.18;5.20;;;27.00;45.30;;;;;;4945432;29;20071;-85
2021/08/14 11:09:18;;;;;;;6.00;4.78;;;27.00;46.00;;;;;;4949251;29;20031;-87
2021/08/14 11:11:59;;;;;;;10.15;4.85;;;27.00;45.30;;;;;;4937630;28;20043;-86
2021/08/14 11:14:49;;;;;;;5.95;4.75;;;27.20;44.80;;;;;;4938857;29;20024;-88
2021/08/14 11:17:15;;;;;;;8.20;4.75;;;27.20;44.20;;;;;;4937697;29;20054;-85
2021/08/14 11:19:47;;;;;;;6.88;4.78;;;27.10;44.80;;;;;;4937132;29;20027;-86
2021/08/14 11:22:31;;;;;;;5.85;4.30;;;27.20;45.30;;;;;;4937986;29;20042;-86
2021/08/14 11:25:02;;;;;;;6.68;4.70;;;27.30;45.50;;;;;;4968551;28;20094;-84
2021/08/14 11:27:31;;;;;;;6.78;4.28;;;27.30;44.60;;;;;;4996640;28;20373;-84
2021/08/14 11:30:06;;;;;;;6.63;5.13;;;27.20;45.50;;;;;;4994021;28;20050;-85
2021/08/14 11:32:34;;;;;;;9.40;5.47;;;27.20;44.90;;;;;;4996571;28;20379;-84
2021/08/14 11:35:01;;;;;;;7.38;4.88;;;27.10;44.30;;;;;;4993535;28;20025;-86
2021/08/14 11:37:27;;;;;;;;;;;26.90;43.80;;;;;;4994907;28;20026;-82
2021/08/14 11:40:00;;;;;;;7.07;4.77;;;26.60;44.20;;;;;;4990968;28;19961;-82
2021/08/14 11:42:28;;;;;;;6.63;4.82;;;26.50;46.00;;;;;;4985976;28;20272;-84
2021/08/14 11:44:56;;;;;;;6.75;4.95;;;26.60;46.40;;;;;;4997538;28;20022;-84
2021/08/14 11:47:38;;;;;;;6.88;4.78;;;26.70;45.60;;;;;;4996533;28;20022;-85
2021/08/14 11:50:07;;;;;;;5.68;4.40;;;26.70;45.60;;;;;;4998294;28;20035;-86
2021/08/14 11:52:34;;;;;;;8.18;4.95;;;26.50;46.20;;;;;;4994244;28;20081;-85
2021/08/14 11:55:01;;;;;;;6.85;4.97;;;26.50;46.30;;;;;;4988721;28;20077;-83
2021/08/14 11:57:29;;;;;;;;;;;26.50;47.10;;;;;;4996503;28;20412;-86
2021/08/14 11:59:56;;;;;;;8.73;5.53;;;26.50;46.40;;;;;;4992652;28;20371;-83
2021/08/14 12:02:25;;;;;;;7.63;5.45;;;26.60;47.70;;;;;;4992934;28;20022;-87
2021/08/14 12:04:54;;;;;;;9.23;5.35;;;26.80;46.80;;;;;;4996681;28;20027;-87
2021/08/14 12:07:22;;;;;;;8.52;4.93;;;27.10;46.50;;;;;;4995954;28;20022;-84
2021/08/14 12:09:49;;;;;;;7.18;4.68;;;27.20;46.30;;;;;;4996039;28;20096;-85
2021/08/14 12:12:20;;;;;;;12.18;5.75;;;27.50;45.40;;;;;;4995912;28;20093;-82
2021/08/14 12:14:48;;;;;;;6.43;4.65;;;27.60;44.80;;;;;;5003711;28;20041;-85
2021/08/14 12:17:14;;;;;;;;;;;27.60;43.60;;;;;;5035803;28;20364;-82
2021/08/14 12:19:51;;;;;;;7.90;5.32;;;27.50;44.10;;;;;;5020818;28;19947;-83
2021/08/14 12:22:16;;;;;;;;;;;27.40;43.20;;;;;;5023684;28;20036;-81
2021/08/14 12:24:44;;;;;;;8.23;4.93;;;27.20;43.60;;;;;;5025072;28;19972;-84
2021/08/14 12:27:33;;;;;;;7.32;5.38;;;26.90;44.00;;;;;;5019386;28;20475;-83
2021/08/14 12:30:20;;;;;;;8.05;5.82;;;26.80;44.40;;;;;;5010277;28;20033;-83
2021/08/14 12:32:47;;;;;;;10.13;5.47;;;26.80;44.70;;;;;;5035675;28;20457;-83
2021/08/14 12:35:21;;;;;;;9.45;5.78;;;26.80;45.70;;;;;;5026364;28;20021;-81
2021/08/14 12:37:50;;;;;;;8.15;5.72;;;26.80;45.50;;;;;;5033920;28;20029;-82
2021/08/14 12:40:18;;;;;;;6.63;5.45;;;26.80;45.10;;;;;;5033946;28;20013;-81
2021/08/14 12:42:45;;;;;;;8.68;6.38;;;26.70;45.50;;;;;;5034224;28;20029;-82
2021/08/14 12:45:21;;;;;;;11.88;5.95;;;26.60;45.90;;;;;;5031917;28;20044;-83
2021/08/14 12:47:52;;;;;;;11.73;7.07;;;26.70;45.40;;;;;;5022219;28;20025;-87
2021/08/14 12:50:31;;;;;;;9.85;6.47;;;26.60;45.20;;;;;;5032785;28;20029;-85
2021/08/14 12:52:58;;;;;;;11.43;6.57;;;26.70;45.20;;;;;;5028365;28;20073;-84
2021/08/14 12:55:35;;;;;;;12.75;8.68;;;26.80;45.40;;;;;;5039634;28;20112;-85